createdAt,value
2022-12-11T00:00:34.125Z,97863.09
2022-12-11T00:05:40.224Z,97863.09
2022-12-11T00:10:49.112Z,97866.81
2022-12-11T00:15:53.466Z,97860.78
2022-12-11T00:20:56.302Z,97865.06
2022-12-11T00:25:59.044Z,97865.91
2022-12-11T00:31:06.636Z,97876.28
2022-12-11T00:36:13.893Z,97874.38
2022-12-11T00:41:17.144Z,97868.31
2022-12-11T00:46:21.408Z,97863.00
2022-12-11T00:51:24.265Z,97859.59
2022-12-11T00:56:27.037Z,97859.31
2022-12-11T01:01:31.164Z,97874.16
2022-12-11T01:06:33.971Z,97873.38
2022-12-11T01:11:37.940Z,97877.53
2022-12-11T01:16:42.097Z,97870.63
2022-12-11T01:21:44.844Z,97872.63
2022-12-11T01:26:47.574Z,97867.94
2022-12-11T01:31:51.757Z,97860.16
2022-12-11T01:36:54.476Z,97864.31
2022-12-11T01:41:58.698Z,97859.88
2022-12-11T01:47:02.853Z,97854.88
2022-12-11T01:52:09.246Z,97851.19
2022-12-11T01:57:14.554Z,97851.97
2022-12-11T02:02:23.534Z,97867.34
2022-12-11T02:07:26.442Z,97861.25
2022-12-11T02:12:39.341Z,97848.91
2022-12-11T02:17:47.707Z,97842.59
2022-12-11T02:23:27.141Z,97841.00
2022-12-11T02:28:35.515Z,97845.28
2022-12-11T02:33:44.784Z,97857.97
2022-12-11T02:38:50.768Z,97855.44
2022-12-11T02:43:57.850Z,97853.03
2022-12-11T02:49:01.521Z,97855.28
2022-12-11T02:54:07.837Z,97846.53
2022-12-11T02:59:16.593Z,97845.00
2022-12-11T03:04:19.448Z,97849.13
2022-12-11T03:09:22.582Z,97840.59
2022-12-11T03:14:26.716Z,97832.75
2022-12-11T03:19:36.345Z,97839.59
2022-12-11T03:24:45.214Z,97841.34
2022-12-11T03:29:56.709Z,97842.22
2022-12-11T03:35:04.524Z,97838.59
2022-12-11T03:40:13.046Z,97838.75
2022-12-11T03:45:19.166Z,97841.44
2022-12-11T03:50:24.300Z,97855.28
2022-12-11T03:55:28.916Z,97845.59
2022-12-11T04:00:33.157Z,97839.66
2022-12-11T04:05:35.984Z,97835.28
2022-12-11T04:10:39.153Z,97841.28
2022-12-11T04:15:43.397Z,97838.53
2022-12-11T04:21:03.686Z,97838.53
2022-12-11T04:26:07.552Z,97836.53
2022-12-11T04:31:14.460Z,97836.06
2022-12-11T04:36:17.210Z,97827.97
2022-12-11T04:41:19.993Z,97835.75
2022-12-11T04:46:26.003Z,97829.00
2022-12-11T04:51:29.395Z,97824.44
2022-12-11T04:56:32.308Z,97826.16
2022-12-11T05:01:36.500Z,97824.44
2022-12-11T05:06:39.463Z,97826.16
2022-12-11T05:11:42.299Z,97827.03
2022-12-11T05:16:46.460Z,97814.69
2022-12-11T05:21:49.186Z,97816.31
2022-12-11T05:26:51.916Z,97818.16
2022-12-11T05:31:56.083Z,97809.59
2022-12-11T05:36:58.870Z,97808.69
2022-12-11T05:42:01.818Z,97812.28
2022-12-11T05:47:05.999Z,97817.44
2022-12-11T05:52:08.823Z,97812.59
2022-12-11T05:57:11.605Z,97809.97
2022-12-11T06:02:15.932Z,97807.06
2022-12-11T06:07:18.953Z,97790.16
2022-12-11T06:12:21.717Z,97785.69
2022-12-11T06:17:25.854Z,97795.81
2022-12-11T06:22:28.597Z,97793.91
2022-12-11T06:27:31.447Z,97790.38
2022-12-11T06:32:35.545Z,97782.47
2022-12-11T06:37:38.987Z,97791.13
2022-12-11T06:42:41.842Z,97785.09
2022-12-11T06:47:46.097Z,97782.47
2022-12-11T06:52:48.805Z,97788.91
2022-12-11T06:57:51.630Z,97799.31
2022-12-11T07:02:56.039Z,97794.78
2022-12-11T07:07:59.333Z,97800.78
2022-12-11T07:13:02.315Z,97805.28
2022-12-11T07:18:07.340Z,97809.75
2022-12-11T07:23:10.152Z,97803.66
2022-12-11T07:28:16.673Z,97792.94
2022-12-11T07:33:21.035Z,97796.38
2022-12-11T07:38:23.874Z,97790.22
2022-12-11T07:43:26.828Z,97795.28
2022-12-11T07:48:31.709Z,97790.31
2022-12-11T07:53:34.557Z,97794.38
2022-12-11T07:58:38.999Z,97798.44
2022-12-11T08:03:43.421Z,97806.13
2022-12-11T08:08:47.449Z,97807.88
2022-12-11T08:13:51.001Z,97813.50
2022-12-11T08:18:56.002Z,97811.28
2022-12-11T08:23:59.753Z,97816.38
2022-12-11T08:29:03.189Z,97817.19
2022-12-11T08:34:07.829Z,97821.44
2022-12-11T08:39:11.068Z,97816.06
2022-12-11T08:44:16.545Z,97821.72
2022-12-11T08:49:21.745Z,97810.94
2022-12-11T08:54:25.150Z,97813.38
2022-12-11T08:59:28.070Z,97819.22
2022-12-11T09:04:32.488Z,97830.63
2022-12-11T09:09:35.282Z,97828.25
2022-12-11T09:14:38.218Z,97818.84
2022-12-11T09:19:42.649Z,97808.69
2022-12-11T09:24:46.210Z,97810.59
2022-12-11T09:29:49.470Z,97812.03
2022-12-11T09:34:53.870Z,97814.34
2022-12-11T09:40:01.281Z,97820.81
2022-12-11T09:45:14.914Z,97821.81
2022-12-11T09:50:24.201Z,97816.50
2022-12-11T09:55:38.767Z,97813.63
2022-12-11T10:00:48.098Z,97801.06
2022-12-11T10:06:04.489Z,97794.63
2022-12-11T10:11:28.214Z,97796.94
2022-12-11T10:16:37.661Z,97776.94
2022-12-11T10:21:43.425Z,97769.84
2022-12-11T10:26:47.711Z,97773.78
2022-12-11T10:31:54.505Z,97771.53
2022-12-11T10:37:00.695Z,97774.44
2022-12-11T10:42:17.557Z,97765.59
2022-12-11T10:47:20.268Z,97754.69
2022-12-11T10:52:26.889Z,97764.16
2022-12-11T10:57:33.243Z,97761.69
2022-12-11T11:02:37.779Z,97760.53
2022-12-11T11:07:42.538Z,97755.97
2022-12-11T11:12:47.618Z,97758.25
2022-12-11T11:17:55.872Z,97760.75
2022-12-11T11:23:03.960Z,97748.69
2022-12-11T11:28:17.180Z,97738.56
2022-12-11T11:33:23.754Z,97741.44
2022-12-11T11:38:32.015Z,97734.91
2022-12-11T11:43:39.660Z,97734.31
2022-12-11T11:48:51.599Z,97727.91
2022-12-11T11:54:00.467Z,97726.28
2022-12-11T11:59:12.993Z,97726.09
2022-12-11T12:04:16.046Z,97728.03
2022-12-11T12:09:35.074Z,97720.88
2022-12-11T12:14:52.439Z,97710.50
2022-12-11T12:20:04.941Z,97704.03
2022-12-11T12:25:19.829Z,97703.38
2022-12-11T12:30:23.888Z,97702.38
2022-12-11T12:35:36.050Z,97689.19
2022-12-11T12:40:58.995Z,97688.94
2022-12-11T12:46:12.132Z,97699.22
2022-12-11T12:51:16.400Z,97685.81
2022-12-11T12:56:21.678Z,97692.03
2022-12-11T13:01:27.132Z,97682.72
2022-12-11T13:06:34.369Z,97693.13
2022-12-11T13:11:38.645Z,97691.69
2022-12-11T13:16:42.846Z,97686.97
2022-12-11T13:21:56.964Z,97695.00
2022-12-11T13:27:13.019Z,97699.22
2022-12-11T13:32:24.974Z,97699.81
2022-12-11T13:37:33.032Z,97704.19
2022-12-11T13:42:41.710Z,97703.38
2022-12-11T13:47:45.996Z,97714.59
2022-12-11T13:52:54.650Z,97706.78
2022-12-11T13:58:00.238Z,97712.78
2022-12-11T14:03:07.395Z,97714.31
2022-12-11T14:08:11.168Z,97710.56
2022-12-11T14:13:21.204Z,97712.25
2022-12-11T14:18:27.513Z,97712.84
2022-12-11T14:23:32.426Z,97721.56
2022-12-11T14:28:42.921Z,97730.44
2022-12-11T14:33:50.009Z,97733.16
2022-12-11T14:38:59.344Z,97735.25
2022-12-11T14:44:07.711Z,97737.97
2022-12-11T14:49:21.620Z,97732.72
2022-12-11T14:54:30.732Z,97733.94
2022-12-11T14:59:42.480Z,97739.50
2022-12-11T15:04:45.452Z,97742.03
2022-12-11T15:09:48.447Z,97735.63
2022-12-11T15:14:55.347Z,97736.44
2022-12-11T15:20:06.450Z,97737.72
2022-12-11T15:25:20.569Z,97741.38
2022-12-11T15:30:34.710Z,97742.38
2022-12-11T15:35:39.582Z,97746.84
2022-12-11T15:40:42.534Z,97744.31
2022-12-11T15:45:47.030Z,97745.22
2022-12-11T15:50:50.184Z,97745.22
2022-12-11T15:55:54.038Z,97748.88
2022-12-11T16:00:58.452Z,97756.03
2022-12-11T16:06:01.265Z,97747.66
2022-12-11T16:11:04.196Z,97751.16
2022-12-11T16:16:09.089Z,97749.34
2022-12-11T16:21:15.641Z,97750.03
2022-12-11T16:26:22.540Z,97749.28
2022-12-11T16:31:26.732Z,97750.38
2022-12-11T16:36:29.611Z,97753.75
2022-12-11T16:41:32.858Z,97741.59
2022-12-11T16:46:37.321Z,97742.53
2022-12-11T16:51:40.349Z,97738.38
2022-12-11T16:56:44.259Z,97744.13
2022-12-11T17:01:50.457Z,97743.28
2022-12-11T17:06:53.341Z,97743.34
2022-12-11T17:11:56.129Z,97738.97
2022-12-11T17:17:00.345Z,97735.09
2022-12-11T17:22:04.555Z,97739.31
2022-12-11T17:27:07.389Z,97738.13
2022-12-11T17:32:12.220Z,97738.22
2022-12-11T17:37:14.997Z,97738.06
2022-12-11T17:42:17.792Z,97733.91
2022-12-11T17:47:21.998Z,97737.38
2022-12-11T17:52:27.340Z,97739.81
2022-12-11T17:57:34.129Z,97741.59
2022-12-11T18:02:38.475Z,97737.19
2022-12-11T18:07:41.305Z,97732.13
2022-12-11T18:12:44.258Z,97743.13
2022-12-11T18:17:48.516Z,97741.25
2022-12-11T18:22:52.069Z,97742.88
2022-12-11T18:27:56.706Z,97747.25
2022-12-11T18:33:01.021Z,97740.25
2022-12-11T18:38:04.871Z,97741.09
2022-12-11T18:43:07.883Z,97737.72
2022-12-11T18:48:13.205Z,97740.00
2022-12-11T18:53:16.890Z,97740.00
2022-12-11T18:58:20.984Z,97741.78
2022-12-11T19:03:25.438Z,97739.94
2022-12-11T19:08:28.349Z,97734.00
2022-12-11T19:13:31.230Z,97727.84
2022-12-11T19:18:35.479Z,97741.69
2022-12-11T19:23:38.478Z,97735.84
2022-12-11T19:28:41.576Z,97737.06
2022-12-11T19:33:46.796Z,97739.50
2022-12-11T19:38:50.112Z,97731.66
2022-12-11T19:43:53.053Z,97733.50
2022-12-11T19:49:00.330Z,97739.06
2022-12-11T19:54:04.302Z,97742.53
2022-12-11T19:59:10.106Z,97740.91
2022-12-11T20:04:16.406Z,97738.91
2022-12-11T20:09:19.363Z,97734.41
2022-12-11T20:14:25.051Z,97735.66
2022-12-11T20:19:29.807Z,97729.81
2022-12-11T20:24:33.153Z,97737.84
2022-12-11T20:29:35.982Z,97737.50
2022-12-11T20:34:40.520Z,97737.44
2022-12-11T20:39:43.358Z,97742.41
2022-12-11T20:44:49.227Z,97741.50
2022-12-11T20:49:53.697Z,97740.72
2022-12-11T20:54:56.580Z,97739.78
2022-12-11T20:59:59.642Z,97738.38
2022-12-11T21:05:04.517Z,97741.06
2022-12-11T21:10:08.240Z,97732.28
2022-12-11T21:15:11.945Z,97728.66
2022-12-11T21:20:16.415Z,97733.13
2022-12-11T21:25:19.400Z,97729.66
2022-12-11T21:30:23.494Z,97740.06
2022-12-11T21:35:27.771Z,97747.03
2022-12-11T21:40:31.965Z,97750.44
2022-12-11T21:46:00.435Z,97741.66
2022-12-11T21:51:08.128Z,97736.34
2022-12-11T21:56:13.286Z,97744.97
2022-12-11T22:01:18.979Z,97743.59
2022-12-11T22:06:23.264Z,97746.38
2022-12-11T22:11:28.769Z,97753.53
2022-12-11T22:16:31.903Z,97751.03
2022-12-11T22:21:36.193Z,97750.09
2022-12-11T22:26:39.072Z,97753.47
2022-12-11T22:31:41.853Z,97761.00
2022-12-11T22:36:45.936Z,97757.50
2022-12-11T22:41:48.851Z,97759.19
2022-12-11T22:46:51.769Z,97759.13
2022-12-11T22:51:57.306Z,97761.81
2022-12-11T22:57:00.136Z,97763.50
2022-12-11T23:02:03.184Z,97756.69
2022-12-11T23:07:07.944Z,97757.34
2022-12-11T23:12:10.869Z,97750.69
2022-12-11T23:17:14.579Z,97753.13
2022-12-11T23:22:18.993Z,97757.50
2022-12-11T23:27:21.786Z,97748.84
2022-12-11T23:32:24.635Z,97748.22
2022-12-11T23:37:28.736Z,97752.38
2022-12-11T23:42:31.514Z,97765.13
2022-12-11T23:47:34.327Z,97754.66
2022-12-11T23:52:38.522Z,97748.50
2022-12-11T23:57:41.352Z,97762.34
